PWSweather.com
Personal Weather Stations
Station Observations
KMDSOLOM1
solomons, Solomons, MD 20688

solomonsSolomons, MD 20688

Lat: 38.32, Lon: -76.45

Elevation: 5

Station Type:

http://www.act-us.info/weather

Latest ConditionsUpdated 5:20:11 AM EDT Sunday, Oct 21, 2018
Currently Today's Max Today's Min Today's Average
Temperature 50.9°F10.5°C 56.5°F13.6°C 50.9°F10.5°C 52.9°F11.6°C
Dew Point 39.2°F4.0°C 47.0°F8.3°C 39.2°F4.0°C 44.4°F6.9°C
Winds 14.0 mph SW22.5 kmh SW 20.0 mph -32.2 kmh - - 10.0 mph 16.1 kmh
Wind Gusts 28.0 mph45.1 kmh 28.0 mph45.1 kmh - -
Humidity 64% 80% 64% 73%
Pressure 29.78 in1008.5 mb 29.78 in1008.5 mb 29.67 in1004.7 mb -
Hour Temp Dew Point Humidity Winds Wind Gusts Pressure Precip Precip Rate Daily Precip Total
05:20 AM 50.9°F10.5°C 39.2°F4.0°C 64% 14.0 mph SW22.5 kmh SW 28.0 mph45.1 kmh 29.78 in1008.5 mb 0.00 in0.0 mm 0.00 in0.0 mm 0.01 in0.3 mm
05:15 AM 51.0°F10.6°C 40.1°F4.5°C 66% 6.0 mph SSW9.7 kmh SSW 17.0 mph27.4 kmh 29.78 in1008.5 mb 0.00 in0.0 mm 0.00 in0.0 mm 0.01 in0.3 mm
05:10 AM 51.2°F10.7°C 40.6°F4.8°C 67% 9.0 mph SW14.5 kmh SW 18.0 mph29.0 kmh 29.78 in1008.5 mb 0.00 in0.0 mm 0.00 in0.0 mm 0.01 in0.3 mm
05:05 AM 51.2°F10.7°C 41.0°F5.0°C 68% 9.0 mph SSW14.5 kmh SSW 18.0 mph29.0 kmh 29.77 in1008.1 mb 0.00 in0.0 mm 0.00 in0.0 mm 0.01 in0.3 mm
05:00 AM 51.2°F10.7°C 41.4°F5.2°C 69% 9.0 mph SW14.5 kmh SW 12.0 mph19.3 kmh 29.77 in1008.1 mb 0.00 in0.0 mm 0.00 in0.0 mm 0.01 in0.3 mm
04:55 AM 51.4°F10.8°C 42.0°F5.6°C 70% 8.0 mph SW12.9 kmh SW 15.0 mph24.1 kmh 29.77 in1008.1 mb 0.00 in0.0 mm 0.00 in0.0 mm 0.01 in0.3 mm
04:50 AM 51.5°F10.8°C 42.4°F5.8°C 71% 6.0 mph SSW9.7 kmh SSW 15.0 mph24.1 kmh 29.77 in1008.1 mb 0.00 in0.0 mm 0.00 in0.0 mm 0.01 in0.3 mm
04:45 AM 51.5°F10.8°C 42.4°F5.8°C 71% 13.0 mph SW20.9 kmh SW 13.0 mph20.9 kmh 29.77 in1008.1 mb 0.00 in0.0 mm 0.00 in0.0 mm 0.01 in0.3 mm
04:40 AM 51.5°F10.8°C 42.1°F5.6°C 70% 13.0 mph SW20.9 kmh SW 19.0 mph30.6 kmh 29.77 in1008.1 mb 0.00 in0.0 mm 0.00 in0.0 mm 0.01 in0.3 mm
04:35 AM 51.5°F10.8°C 42.4°F5.8°C 71% 12.0 mph SSW19.3 kmh SSW 19.0 mph30.6 kmh 29.76 in1007.8 mb 0.00 in0.0 mm 0.00 in0.0 mm 0.01 in0.3 mm
04:30 AM 51.5°F10.8°C 42.4°F5.8°C 71% 11.0 mph SW17.7 kmh SW 15.0 mph24.1 kmh 29.76 in1007.8 mb 0.00 in0.0 mm 0.00 in0.0 mm 0.01 in0.3 mm
04:25 AM 51.6°F10.9°C 42.2°F5.7°C 70% 12.0 mph SW19.3 kmh SW 23.0 mph37.0 kmh 29.76 in1007.8 mb 0.00 in0.0 mm 0.00 in0.0 mm 0.01 in0.3 mm
04:20 AM 51.7°F10.9°C 42.2°F5.7°C 70% 14.0 mph SSW22.5 kmh SSW 23.0 mph37.0 kmh 29.75 in1007.5 mb 0.00 in0.0 mm 0.00 in0.0 mm 0.01 in0.3 mm
04:15 AM 51.7°F10.9°C 42.6°F5.9°C 71% 9.0 mph SW14.5 kmh SW 14.0 mph22.5 kmh 29.75 in1007.5 mb 0.00 in0.0 mm 0.00 in0.0 mm 0.01 in0.3 mm
04:10 AM 51.8°F11.0°C 42.7°F5.9°C 71% 8.0 mph SW12.9 kmh SW 20.0 mph32.2 kmh 29.75 in1007.5 mb 0.00 in0.0 mm 0.00 in0.0 mm 0.01 in0.3 mm
04:05 AM 51.8°F11.0°C 42.7°F5.9°C 71% 9.0 mph SW14.5 kmh SW 20.0 mph32.2 kmh 29.74 in1007.1 mb 0.00 in0.0 mm 0.00 in0.0 mm 0.01 in0.3 mm
04:00 AM 51.7°F10.9°C 42.2°F5.7°C 70% 12.0 mph SSW19.3 kmh SSW 20.0 mph32.2 kmh 29.74 in1007.1 mb 0.00 in0.0 mm 0.00 in0.0 mm 0.01 in0.3 mm
03:55 AM 51.7°F10.9°C 42.6°F5.9°C 71% 11.0 mph SSW17.7 kmh SSW 19.0 mph30.6 kmh 29.74 in1007.1 mb 0.00 in0.0 mm 0.00 in0.0 mm 0.01 in0.3 mm
03:50 AM 51.7°F10.9°C 42.6°F5.9°C 71% 6.0 mph SSW9.7 kmh SSW 19.0 mph30.6 kmh 29.73 in1006.8 mb 0.00 in0.0 mm 0.00 in0.0 mm 0.01 in0.3 mm
03:45 AM 51.8°F11.0°C 42.7°F5.9°C 71% 15.0 mph S24.1 kmh S 17.0 mph27.4 kmh 29.73 in1006.8 mb 0.00 in0.0 mm 0.00 in0.0 mm 0.01 in0.3 mm
03:40 AM 51.7°F10.9°C 42.6°F5.9°C 71% 11.0 mph SW17.7 kmh SW 18.0 mph29.0 kmh 29.72 in1006.4 mb 0.00 in0.0 mm 0.00 in0.0 mm 0.01 in0.3 mm
03:35 AM 51.8°F11.0°C 43.4°F6.3°C 73% 8.0 mph SSW12.9 kmh SSW 18.0 mph29.0 kmh 29.73 in1006.8 mb 0.00 in0.0 mm 0.00 in0.0 mm 0.01 in0.3 mm
03:30 AM 51.8°F11.0°C 43.1°F6.2°C 72% 13.0 mph S20.9 kmh S 18.0 mph29.0 kmh 29.72 in1006.4 mb 0.00 in0.0 mm 0.00 in0.0 mm 0.01 in0.3 mm
03:25 AM 51.8°F11.0°C 43.1°F6.2°C 72% 6.0 mph SW9.7 kmh SW 19.0 mph30.6 kmh 29.72 in1006.4 mb 0.00 in0.0 mm 0.00 in0.0 mm 0.01 in0.3 mm
03:20 AM 51.9°F11.1°C 42.8°F6.0°C 71% 9.0 mph SSW14.5 kmh SSW 19.0 mph30.6 kmh 29.72 in1006.4 mb 0.00 in0.0 mm 0.00 in0.0 mm 0.01 in0.3 mm
03:15 AM 52.2°F11.2°C 43.5°F6.4°C 72% 9.0 mph S14.5 kmh S 12.0 mph19.3 kmh 29.72 in1006.4 mb 0.00 in0.0 mm 0.00 in0.0 mm 0.01 in0.3 mm
03:10 AM 52.3°F11.3°C 43.9°F6.6°C 73% 13.0 mph S20.9 kmh S 17.0 mph27.4 kmh 29.72 in1006.4 mb 0.00 in0.0 mm 0.00 in0.0 mm 0.01 in0.3 mm
03:05 AM 52.4°F11.3°C 44.0°F6.7°C 73% 8.0 mph S12.9 kmh S 16.0 mph25.7 kmh 29.71 in1006.1 mb 0.00 in0.0 mm 0.00 in0.0 mm 0.01 in0.3 mm
03:00 AM 52.4°F11.3°C 43.7°F6.5°C 72% 9.0 mph SSW14.5 kmh SSW 14.0 mph22.5 kmh 29.71 in1006.1 mb 0.00 in0.0 mm 0.00 in0.0 mm 0.01 in0.3 mm
02:55 AM 52.5°F11.4°C 43.4°F6.3°C 71% 13.0 mph SSW20.9 kmh SSW 20.0 mph32.2 kmh 29.71 in1006.1 mb 0.00 in0.0 mm 0.00 in0.0 mm 0.01 in0.3 mm
02:50 AM 52.6°F11.4°C 44.2°F6.8°C 73% 10.0 mph S16.1 kmh S 19.0 mph30.6 kmh 29.72 in1006.4 mb 0.00 in0.0 mm 0.00 in0.0 mm 0.01 in0.3 mm
02:45 AM 52.7°F11.5°C 44.7°F7.1°C 74% 13.0 mph SW20.9 kmh SW 16.0 mph25.7 kmh 29.72 in1006.4 mb 0.00 in0.0 mm 0.00 in0.0 mm 0.01 in0.3 mm
02:40 AM 52.7°F11.5°C 45.0°F7.2°C 75% 8.0 mph SSW12.9 kmh SSW 19.0 mph30.6 kmh 29.72 in1006.4 mb 0.00 in0.0 mm 0.00 in0.0 mm 0.01 in0.3 mm
02:35 AM 52.7°F11.5°C 45.0°F7.2°C 75% 10.0 mph SW16.1 kmh SW 15.0 mph24.1 kmh 29.73 in1006.8 mb 0.00 in0.0 mm 0.00 in0.0 mm 0.01 in0.3 mm
02:30 AM 52.6°F11.4°C 45.3°F7.4°C 76% 10.0 mph S16.1 kmh S 15.0 mph24.1 kmh 29.72 in1006.4 mb 0.00 in0.0 mm 0.00 in0.0 mm 0.01 in0.3 mm
02:25 AM 52.6°F11.4°C 45.6°F7.6°C 77% 8.0 mph S12.9 kmh S 17.0 mph27.4 kmh 29.72 in1006.4 mb 0.00 in0.0 mm 0.00 in0.0 mm 0.01 in0.3 mm
02:20 AM 52.6°F11.4°C 46.0°F7.8°C 78% 6.0 mph SSW9.7 kmh SSW 17.0 mph27.4 kmh 29.72 in1006.4 mb 0.00 in0.0 mm 0.00 in0.0 mm 0.01 in0.3 mm
02:15 AM 52.7°F11.5°C 46.4°F8.0°C 79% 13.0 mph SSW20.9 kmh SSW 17.0 mph27.4 kmh 29.72 in1006.4 mb 0.00 in0.0 mm 0.00 in0.0 mm 0.01 in0.3 mm
02:10 AM 52.8°F11.6°C 46.5°F8.1°C 79% 11.0 mph SSW17.7 kmh SSW 22.0 mph35.4 kmh 29.72 in1006.4 mb 0.01 in0.3 mm 0.00 in0.0 mm 0.01 in0.3 mm
02:05 AM 52.9°F11.6°C 46.2°F7.9°C 78% 5.0 mph SSW8.0 kmh SSW 22.0 mph35.4 kmh 29.72 in1006.4 mb 0.01 in0.3 mm 0.00 in0.0 mm 0.01 in0.3 mm
02:00 AM 52.9°F11.6°C 46.2°F7.9°C 78% 9.0 mph SSW14.5 kmh SSW 20.0 mph32.2 kmh 29.72 in1006.4 mb 0.01 in0.3 mm 0.00 in0.0 mm 0.01 in0.3 mm
01:55 AM 52.9°F11.6°C 46.9°F8.3°C 80% 11.0 mph S17.7 kmh S 17.0 mph27.4 kmh 29.72 in1006.4 mb 0.01 in0.3 mm 0.00 in0.0 mm 0.01 in0.3 mm
01:50 AM 53.0°F11.7°C 47.0°F8.3°C 80% 14.0 mph SW22.5 kmh SW 17.0 mph27.4 kmh 29.71 in1006.1 mb 0.01 in0.3 mm 0.00 in0.0 mm 0.01 in0.3 mm
01:45 AM 53.0°F11.7°C 46.7°F8.2°C 79% 7.0 mph SSW11.3 kmh SSW 11.0 mph17.7 kmh 29.71 in1006.1 mb 0.01 in0.3 mm 0.00 in0.0 mm 0.01 in0.3 mm
01:40 AM 53.1°F11.7°C 46.4°F8.0°C 78% 9.0 mph SW14.5 kmh SW 18.0 mph29.0 kmh 29.71 in1006.1 mb 0.01 in0.3 mm 0.00 in0.0 mm 0.01 in0.3 mm
01:35 AM 53.1°F11.7°C 46.8°F8.2°C 79% 8.0 mph S12.9 kmh S 16.0 mph25.7 kmh 29.70 in1005.8 mb 0.01 in0.3 mm 0.00 in0.0 mm 0.01 in0.3 mm
01:30 AM 53.2°F11.8°C 46.5°F8.1°C 78% 8.0 mph SSW12.9 kmh SSW 10.0 mph16.1 kmh 29.70 in1005.8 mb 0.01 in0.3 mm 0.00 in0.0 mm 0.01 in0.3 mm
01:25 AM 53.3°F11.8°C 46.3°F7.9°C 77% 6.0 mph SW9.7 kmh SW 16.0 mph25.7 kmh 29.71 in1006.1 mb 0.01 in0.3 mm 0.00 in0.0 mm 0.01 in0.3 mm
01:20 AM 53.4°F11.9°C 46.0°F7.8°C 76% 15.0 mph S24.1 kmh S 15.0 mph24.1 kmh 29.70 in1005.8 mb 0.01 in0.3 mm 0.00 in0.0 mm 0.01 in0.3 mm
01:15 AM 53.5°F11.9°C 46.1°F7.8°C 76% 8.0 mph SW12.9 kmh SW 14.0 mph22.5 kmh 29.70 in1005.8 mb 0.01 in0.3 mm 0.00 in0.0 mm 0.01 in0.3 mm
01:10 AM 53.7°F12.1°C 46.3°F7.9°C 76% 12.0 mph S19.3 kmh S 17.0 mph27.4 kmh 29.70 in1005.8 mb 0.01 in0.3 mm 0.12 in3.0 mm 0.01 in0.3 mm
01:05 AM 53.9°F12.2°C 46.9°F8.3°C 77% 6.0 mph SSW9.7 kmh SSW 17.0 mph27.4 kmh 29.70 in1005.8 mb 0.00 in0.0 mm 0.00 in0.0 mm 0.00 in0.0 mm
01:00 AM 54.1°F12.3°C 46.7°F8.2°C 76% 11.0 mph WSW17.7 kmh WSW 15.0 mph24.1 kmh 29.69 in1005.4 mb 0.00 in0.0 mm 0.00 in0.0 mm 0.00 in0.0 mm
12:55 AM 54.6°F12.6°C 46.9°F8.3°C 75% 5.0 mph SSW8.0 kmh SSW 25.0 mph40.2 kmh 29.69 in1005.4 mb 0.00 in0.0 mm 0.00 in0.0 mm 0.00 in0.0 mm
12:50 AM 54.9°F12.7°C 45.3°F7.4°C 70% 9.0 mph SW14.5 kmh SW 25.0 mph40.2 kmh 29.69 in1005.4 mb 0.00 in0.0 mm 0.00 in0.0 mm 0.00 in0.0 mm
12:45 AM 55.2°F12.9°C 46.0°F7.8°C 71% 11.0 mph SW17.7 kmh SW 25.0 mph40.2 kmh 29.69 in1005.4 mb 0.00 in0.0 mm 0.00 in0.0 mm 0.00 in0.0 mm
12:40 AM 55.4°F13.0°C 45.8°F7.7°C 70% 20.0 mph SW32.2 kmh SW 26.0 mph41.8 kmh 29.68 in1005.1 mb 0.00 in0.0 mm 0.00 in0.0 mm 0.00 in0.0 mm
12:35 AM 55.6°F13.1°C 46.0°F7.8°C 70% 15.0 mph SW24.1 kmh SW 21.0 mph33.8 kmh 29.68 in1005.1 mb 0.00 in0.0 mm 0.00 in0.0 mm 0.00 in0.0 mm
12:30 AM 55.9°F13.3°C 46.3°F7.9°C 70% 6.0 mph SW9.7 kmh SW 19.0 mph30.6 kmh 29.68 in1005.1 mb 0.00 in0.0 mm 0.00 in0.0 mm 0.00 in0.0 mm
12:25 AM 56.0°F13.3°C 46.4°F8.0°C 70% 5.0 mph WSW8.0 kmh WSW 23.0 mph37.0 kmh 29.67 in1004.7 mb 0.00 in0.0 mm 0.00 in0.0 mm 0.00 in0.0 mm
12:20 AM 56.1°F13.4°C 46.1°F7.8°C 69% 6.0 mph SW9.7 kmh SW 23.0 mph37.0 kmh 29.68 in1005.1 mb 0.00 in0.0 mm 0.00 in0.0 mm 0.00 in0.0 mm
12:15 AM 56.2°F13.4°C 46.2°F7.9°C 69% 9.0 mph SW14.5 kmh SW 16.0 mph25.7 kmh 29.68 in1005.1 mb 0.00 in0.0 mm 0.00 in0.0 mm 0.00 in0.0 mm
12:10 AM 56.3°F13.5°C 45.9°F7.7°C 68% 19.0 mph SW30.6 kmh SW 25.0 mph40.2 kmh 29.68 in1005.1 mb 0.00 in0.0 mm 0.00 in0.0 mm 0.00 in0.0 mm
12:05 AM 56.4°F13.6°C 46.8°F8.2°C 70% 11.0 mph SW17.7 kmh SW 21.0 mph33.8 kmh 29.68 in1005.1 mb 0.00 in0.0 mm 0.00 in0.0 mm 0.00 in0.0 mm
12:00 AM 56.5°F13.6°C 46.5°F8.1°C 69% 10.0 mph SW16.1 kmh SW 17.0 mph27.4 kmh 29.67 in1004.7 mb 0.00 in0.0 mm 0.00 in0.0 mm 0.00 in0.0 mm